sensor_id;sensor_type;location;lat;lon;timestamp;pressure;altitude;pressure_sealevel;temperature
74043;BMP280;62384;53.600;10.040;2023-04-28T00:02:12;73803.44;;;7.57
74043;BMP280;62384;53.600;10.040;2023-04-28T00:04:37;73821.88;;;7.45
74043;BMP280;62384;53.600;10.040;2023-04-28T00:07:03;73916.72;;;7.47
74043;BMP280;62384;53.600;10.040;2023-04-28T00:09:28;73812.44;;;7.36
74043;BMP280;62384;53.600;10.040;2023-04-28T00:11:53;73758.66;;;7.40
74043;BMP280;62384;53.600;10.040;2023-04-28T00:14:18;73776.53;;;7.37
74043;BMP280;62384;53.600;10.040;2023-04-28T00:16:44;73887.44;;;7.54
74043;BMP280;62384;53.600;10.040;2023-04-28T00:19:09;73917.28;;;7.48
74043;BMP280;62384;53.600;10.040;2023-04-28T00:21:37;73992.75;;;7.54
74043;BMP280;62384;53.600;10.040;2023-04-28T00:24:03;73957.38;;;7.55
74043;BMP280;62384;53.600;10.040;2023-04-28T00:26:29;73887.94;;;7.33
74043;BMP280;62384;53.600;10.040;2023-04-28T00:28:55;73912.69;;;7.51
74043;BMP280;62384;53.600;10.040;2023-04-28T00:31:20;73760.03;;;7.47
74043;BMP280;62384;53.600;10.040;2023-04-28T00:33:45;73877.69;;;7.09
74043;BMP280;62384;53.600;10.040;2023-04-28T00:36:11;73906.19;;;7.37
74043;BMP280;62384;53.600;10.040;2023-04-28T00:38:36;73879.03;;;7.34
74043;BMP280;62384;53.600;10.040;2023-04-28T00:41:02;73828.47;;;7.29
74043;BMP280;62384;53.600;10.040;2023-04-28T00:43:27;73767.53;;;7.27
74043;BMP280;62384;53.600;10.040;2023-04-28T00:45:53;73640.28;;;7.22
74043;BMP280;62384;53.600;10.040;2023-04-28T00:48:18;73657.47;;;7.16
74043;BMP280;62384;53.600;10.040;2023-04-28T00:50:45;73642.59;;;7.14
74043;BMP280;62384;53.600;10.040;2023-04-28T00:53:11;73709.13;;;7.12
74043;BMP280;62384;53.600;10.040;2023-04-28T00:55:37;73551.88;;;6.87
74043;BMP280;62384;53.600;10.040;2023-04-28T00:58:03;73516.78;;;6.72
74043;BMP280;62384;53.600;10.040;2023-04-28T01:00:29;73520.63;;;6.97
74043;BMP280;62384;53.600;10.040;2023-04-28T01:02:55;73550.16;;;6.95
74043;BMP280;62384;53.600;10.040;2023-04-28T01:05:23;73524.03;;;6.69
74043;BMP280;62384;53.600;10.040;2023-04-28T01:07:49;73518.44;;;6.95
74043;BMP280;62384;53.600;10.040;2023-04-28T01:10:14;73518.06;;;6.88
74043;BMP280;62384;53.600;10.040;2023-04-28T01:12:40;73472.28;;;6.92
74043;BMP280;62384;53.600;10.040;2023-04-28T01:15:06;73474.66;;;6.87
74043;BMP280;62384;53.600;10.040;2023-04-28T01:17:35;73423.97;;;6.76
74043;BMP280;62384;53.600;10.040;2023-04-28T01:20:00;73341.16;;;6.68
74043;BMP280;62384;53.600;10.040;2023-04-28T01:22:25;73415.72;;;6.81
74043;BMP280;62384;53.600;10.040;2023-04-28T01:24:51;73376.63;;;6.36
74043;BMP280;62384;53.600;10.040;2023-04-28T01:27:16;73415.47;;;6.64
74043;BMP280;62384;53.600;10.040;2023-04-28T01:29:41;73256.41;;;6.17
74043;BMP280;62384;53.600;10.040;2023-04-28T01:32:06;73373.94;;;6.69
74043;BMP280;62384;53.600;10.040;2023-04-28T01:34:32;73246.13;;;6.59
74043;BMP280;62384;53.600;10.040;2023-04-28T01:36:59;73354.31;;;6.44
74043;BMP280;62384;53.600;10.040;2023-04-28T01:39:25;73373.84;;;6.67
74043;BMP280;62384;53.600;10.040;2023-04-28T01:41:50;73466.66;;;6.62
74043;BMP280;62384;53.600;10.040;2023-04-28T01:44:15;73387.88;;;6.17
74043;BMP280;62384;53.600;10.040;2023-04-28T01:46:40;73408.41;;;6.60
74043;BMP280;62384;53.600;10.040;2023-04-28T01:49:06;73454.31;;;6.58
74043;BMP280;62384;53.600;10.040;2023-04-28T01:51:31;73392.22;;;6.52
74043;BMP280;62384;53.600;10.040;2023-04-28T01:53:56;73390.22;;;6.55
74043;BMP280;62384;53.600;10.040;2023-04-28T01:56:22;73485.53;;;6.48
74043;BMP280;62384;53.600;10.040;2023-04-28T01:58:47;73435.34;;;6.48
74043;BMP280;62384;53.600;10.040;2023-04-28T02:01:12;73427.97;;;6.49
74043;BMP280;62384;53.600;10.040;2023-04-28T02:03:38;73316.66;;;6.41
74043;BMP280;62384;53.600;10.040;2023-04-28T02:06:03;73406.66;;;6.34
74043;BMP280;62384;53.600;10.040;2023-04-28T02:08:29;73240.28;;;6.34
74043;BMP280;62384;53.600;10.040;2023-04-28T02:10:54;72980.03;;;6.38
74043;BMP280;62384;53.600;10.040;2023-04-28T02:13:21;73247.28;;;6.14
74043;BMP280;62384;53.600;10.040;2023-04-28T02:15:47;73148.41;;;6.23
74043;BMP280;62384;53.600;10.040;2023-04-28T02:18:12;73230.34;;;6.13
74043;BMP280;62384;53.600;10.040;2023-04-28T02:20:37;73135.63;;;6.08
74043;BMP280;62384;53.600;10.040;2023-04-28T02:23:03;73137.16;;;6.19
74043;BMP280;62384;53.600;10.040;2023-04-28T02:25:28;73115.50;;;6.19
74043;BMP280;62384;53.600;10.040;2023-04-28T02:27:53;73089.44;;;6.14
74043;BMP280;62384;53.600;10.040;2023-04-28T02:30:19;73100.31;;;6.10
74043;BMP280;62384;53.600;10.040;2023-04-28T02:32:44;73076.00;;;5.73
74043;BMP280;62384;53.600;10.040;2023-04-28T02:35:09;72921.03;;;5.76
74043;BMP280;62384;53.600;10.040;2023-04-28T02:37:34;73095.50;;;6.08
74043;BMP280;62384;53.600;10.040;2023-04-28T02:40:00;72969.91;;;5.97
74043;BMP280;62384;53.600;10.040;2023-04-28T02:42:25;73054.50;;;5.99
74043;BMP280;62384;53.600;10.040;2023-04-28T02:44:50;72955.66;;;5.72
74043;BMP280;62384;53.600;10.040;2023-04-28T02:47:16;72670.16;;;5.69
74043;BMP280;62384;53.600;10.040;2023-04-28T02:49:41;72839.75;;;5.89
74043;BMP280;62384;53.600;10.040;2023-04-28T02:52:06;72821.16;;;5.86
74043;BMP280;62384;53.600;10.040;2023-04-28T02:54:32;72926.16;;;5.86
74043;BMP280;62384;53.600;10.040;2023-04-28T02:56:59;73060.19;;;5.85
74043;BMP280;62384;53.600;10.040;2023-04-28T02:59:25;72983.69;;;5.61
74043;BMP280;62384;53.600;10.040;2023-04-28T03:01:51;72800.06;;;5.86
74043;BMP280;62384;53.600;10.040;2023-04-28T03:04:16;73024.47;;;5.89
74043;BMP280;62384;53.600;10.040;2023-04-28T03:06:42;73005.22;;;5.71
74043;BMP280;62384;53.600;10.040;2023-04-28T03:09:08;72991.28;;;5.78
74043;BMP280;62384;53.600;10.040;2023-04-28T03:11:33;73116.81;;;5.89
74043;BMP280;62384;53.600;10.040;2023-04-28T03:13:58;73093.41;;;5.84
74043;BMP280;62384;53.600;10.040;2023-04-28T03:16:23;73136.06;;;5.82
74043;BMP280;62384;53.600;10.040;2023-04-28T03:18:49;73231.91;;;5.44
74043;BMP280;62384;53.600;10.040;2023-04-28T03:21:14;73212.81;;;5.87
74043;BMP280;62384;53.600;10.040;2023-04-28T03:23:40;73245.13;;;5.78
74043;BMP280;62384;53.600;10.040;2023-04-28T03:26:05;73148.19;;;5.47
74043;BMP280;62384;53.600;10.040;2023-04-28T03:28:30;73270.38;;;5.77
74043;BMP280;62384;53.600;10.040;2023-04-28T03:30:56;73240.56;;;5.59
74043;BMP280;62384;53.600;10.040;2023-04-28T03:33:21;73243.13;;;5.69
74043;BMP280;62384;53.600;10.040;2023-04-28T03:35:47;73393.44;;;5.79
74043;BMP280;62384;53.600;10.040;2023-04-28T03:38:13;73373.34;;;5.46
74043;BMP280;62384;53.600;10.040;2023-04-28T03:40:39;73399.91;;;5.60
74043;BMP280;62384;53.600;10.040;2023-04-28T03:43:08;73409.25;;;5.79
74043;BMP280;62384;53.600;10.040;2023-04-28T03:45:33;73403.31;;;5.76
74043;BMP280;62384;53.600;10.040;2023-04-28T03:47:59;73358.94;;;5.64
74043;BMP280;62384;53.600;10.040;2023-04-28T03:50:24;73378.31;;;5.72
74043;BMP280;62384;53.600;10.040;2023-04-28T03:52:50;73395.13;;;5.71
74043;BMP280;62384;53.600;10.040;2023-04-28T03:55:15;73155.72;;;5.28
74043;BMP280;62384;53.600;10.040;2023-04-28T03:57:40;73366.97;;;5.67
74043;BMP280;62384;53.600;10.040;2023-04-28T04:00:06;73416.69;;;5.69
74043;BMP280;62384;53.600;10.040;2023-04-28T04:02:32;73431.75;;;5.53
74043;BMP280;62384;53.600;10.040;2023-04-28T04:04:57;73306.53;;;5.72
74043;BMP280;62384;53.600;10.040;2023-04-28T04:07:22;73453.41;;;5.54
74043;BMP280;62384;53.600;10.040;2023-04-28T04:09:48;73219.38;;;5.35
74043;BMP280;62384;53.600;10.040;2023-04-28T04:12:13;73499.91;;;5.55
74043;BMP280;62384;53.600;10.040;2023-04-28T04:14:38;73507.94;;;5.58
74043;BMP280;62384;53.600;10.040;2023-04-28T04:17:03;73536.13;;;5.62
74043;BMP280;62384;53.600;10.040;2023-04-28T04:19:29;73509.69;;;5.72
74043;BMP280;62384;53.600;10.040;2023-04-28T04:21:54;73545.25;;;5.75
74043;BMP280;62384;53.600;10.040;2023-04-28T04:24:20;73530.53;;;5.76
74043;BMP280;62384;53.600;10.040;2023-04-28T04:26:45;73571.63;;;5.75
74043;BMP280;62384;53.600;10.040;2023-04-28T04:29:11;73590.81;;;5.69
74043;BMP280;62384;53.600;10.040;2023-04-28T04:31:36;73520.63;;;5.48
74043;BMP280;62384;53.600;10.040;2023-04-28T04:34:01;73633.44;;;5.67
74043;BMP280;62384;53.600;10.040;2023-04-28T04:36:29;73770.09;;;5.76
74043;BMP280;62384;53.600;10.040;2023-04-28T04:38:54;73780.34;;;5.71
74043;BMP280;62384;53.600;10.040;2023-04-28T04:41:19;73764.41;;;5.78
74043;BMP280;62384;53.600;10.040;2023-04-28T04:43:45;73805.09;;;5.69
74043;BMP280;62384;53.600;10.040;2023-04-28T04:46:10;73661.22;;;5.73
74043;BMP280;62384;53.600;10.040;2023-04-28T04:48:35;73951.28;;;5.60
74043;BMP280;62384;53.600;10.040;2023-04-28T04:51:04;73912.28;;;5.71
74043;BMP280;62384;53.600;10.040;2023-04-28T04:53:30;74032.25;;;5.91
74043;BMP280;62384;53.600;10.040;2023-04-28T04:55:55;74050.31;;;5.93
74043;BMP280;62384;53.600;10.040;2023-04-28T04:58:20;74026.78;;;5.79
74043;BMP280;62384;53.600;10.040;2023-04-28T05:00:45;74146.56;;;5.87
74043;BMP280;62384;53.600;10.040;2023-04-28T05:03:11;74221.22;;;6.16
74043;BMP280;62384;53.600;10.040;2023-04-28T05:05:36;74291.28;;;6.12
74043;BMP280;62384;53.600;10.040;2023-04-28T05:08:04;74275.84;;;5.94
74043;BMP280;62384;53.600;10.040;2023-04-28T05:10:29;74420.53;;;6.10
74043;BMP280;62384;53.600;10.040;2023-04-28T05:12:55;74473.31;;;6.34
74043;BMP280;62384;53.600;10.040;2023-04-28T05:15:20;74519.41;;;6.28
74043;BMP280;62384;53.600;10.040;2023-04-28T05:17:45;74624.41;;;6.41
74043;BMP280;62384;53.600;10.040;2023-04-28T05:20:11;74659.00;;;6.37
74043;BMP280;62384;53.600;10.040;2023-04-28T05:22:36;74778.41;;;6.51
74043;BMP280;62384;53.600;10.040;2023-04-28T05:25:02;74833.03;;;6.32
74043;BMP280;62384;53.600;10.040;2023-04-28T05:27:27;74816.44;;;6.36
74043;BMP280;62384;53.600;10.040;2023-04-28T05:29:52;74861.69;;;6.41
74043;BMP280;62384;53.600;10.040;2023-04-28T05:32:17;75051.56;;;6.71
74043;BMP280;62384;53.600;10.040;2023-04-28T05:34:43;75075.53;;;6.73
74043;BMP280;62384;53.600;10.040;2023-04-28T05:37:08;75113.88;;;6.84
74043;BMP280;62384;53.600;10.040;2023-04-28T05:39:33;75124.28;;;6.89
74043;BMP280;62384;53.600;10.040;2023-04-28T05:41:58;75187.16;;;7.02
74043;BMP280;62384;53.600;10.040;2023-04-28T05:44:24;75209.09;;;7.05
74043;BMP280;62384;53.600;10.040;2023-04-28T05:46:49;75235.19;;;7.14
74043;BMP280;62384;53.600;10.040;2023-04-28T05:49:15;75282.59;;;6.98
74043;BMP280;62384;53.600;10.040;2023-04-28T05:51:40;75395.66;;;7.23
74043;BMP280;62384;53.600;10.040;2023-04-28T05:54:10;75497.97;;;7.31
74043;BMP280;62384;53.600;10.040;2023-04-28T05:56:35;75565.88;;;7.40
74043;BMP280;62384;53.600;10.040;2023-04-28T05:59:00;75620.78;;;7.11
74043;BMP280;62384;53.600;10.040;2023-04-28T06:01:29;75735.41;;;7.47
74043;BMP280;62384;53.600;10.040;2023-04-28T06:03:55;75853.03;;;7.67
74043;BMP280;62384;53.600;10.040;2023-04-28T06:06:22;75888.69;;;7.75
74043;BMP280;62384;53.600;10.040;2023-04-28T06:08:48;75930.91;;;7.79
74043;BMP280;62384;53.600;10.040;2023-04-28T06:11:17;76002.41;;;7.91
74043;BMP280;62384;53.600;10.040;2023-04-28T06:13:46;76004.81;;;7.70
74043;BMP280;62384;53.600;10.040;2023-04-28T06:16:11;76055.31;;;8.02
74043;BMP280;62384;53.600;10.040;2023-04-28T06:18:36;76108.69;;;8.19
74043;BMP280;62384;53.600;10.040;2023-04-28T06:21:02;76124.91;;;8.29
74043;BMP280;62384;53.600;10.040;2023-04-28T06:23:27;76145.34;;;8.26
74043;BMP280;62384;53.600;10.040;2023-04-28T06:25:52;76190.16;;;8.53
74043;BMP280;62384;53.600;10.040;2023-04-28T06:28:19;76207.06;;;8.59
74043;BMP280;62384;53.600;10.040;2023-04-28T06:30:44;76265.69;;;8.80
74043;BMP280;62384;53.600;10.040;2023-04-28T06:33:09;76233.72;;;8.85
74043;BMP280;62384;53.600;10.040;2023-04-28T06:35:35;76287.53;;;8.99
74043;BMP280;62384;53.600;10.040;2023-04-28T06:38:02;76311.34;;;9.11
74043;BMP280;62384;53.600;10.040;2023-04-28T06:40:28;76282.22;;;8.99
74043;BMP280;62384;53.600;10.040;2023-04-28T06:42:53;76328.81;;;9.28
74043;BMP280;62384;53.600;10.040;2023-04-28T06:45:19;76371.91;;;9.48
74043;BMP280;62384;53.600;10.040;2023-04-28T06:47:44;76356.81;;;9.58
74043;BMP280;62384;53.600;10.040;2023-04-28T06:50:09;76397.28;;;9.58
74043;BMP280;62384;53.600;10.040;2023-04-28T06:52:35;76372.97;;;9.60
74043;BMP280;62384;53.600;10.040;2023-04-28T06:55:01;76437.59;;;10.00
74043;BMP280;62384;53.600;10.040;2023-04-28T06:57:26;76430.56;;;9.99
74043;BMP280;62384;53.600;10.040;2023-04-28T06:59:51;76437.06;;;10.07
74043;BMP280;62384;53.600;10.040;2023-04-28T07:02:16;76420.34;;;9.85
74043;BMP280;62384;53.600;10.040;2023-04-28T07:04:41;76450.94;;;10.26
74043;BMP280;62384;53.600;10.040;2023-04-28T07:07:07;76465.69;;;10.37
74043;BMP280;62384;53.600;10.040;2023-04-28T07:09:33;76474.00;;;10.53
74043;BMP280;62384;53.600;10.040;2023-04-28T07:11:59;76521.63;;;10.62
74043;BMP280;62384;53.600;10.040;2023-04-28T07:14:24;76534.28;;;10.73
74043;BMP280;62384;53.600;10.040;2023-04-28T07:16:49;76505.94;;;10.72
74043;BMP280;62384;53.600;10.040;2023-04-28T07:19:15;76508.56;;;10.91
74043;BMP280;62384;53.600;10.040;2023-04-28T07:21:40;76499.53;;;10.59
74043;BMP280;62384;53.600;10.040;2023-04-28T07:24:05;76555.78;;;10.95
74043;BMP280;62384;53.600;10.040;2023-04-28T07:26:32;76559.81;;;10.98
74043;BMP280;62384;53.600;10.040;2023-04-28T07:28:57;76556.50;;;10.91
74043;BMP280;62384;53.600;10.040;2023-04-28T07:31:24;76545.72;;;10.95
74043;BMP280;62384;53.600;10.040;2023-04-28T07:37:12;76570.38;;;11.10
74043;BMP280;62384;53.600;10.040;2023-04-28T07:39:38;76597.38;;;11.52
74043;BMP280;62384;53.600;10.040;2023-04-28T07:42:04;76700.13;;;11.81
74043;BMP280;62384;53.600;10.040;2023-04-28T07:44:30;76652.72;;;11.89
74043;BMP280;62384;53.600;10.040;2023-04-28T07:46:55;76624.88;;;11.62
74043;BMP280;62384;53.600;10.040;2023-04-28T07:49:21;76695.88;;;12.01
74043;BMP280;62384;53.600;10.040;2023-04-28T07:51:46;76642.75;;;11.85
74043;BMP280;62384;53.600;10.040;2023-04-28T07:54:11;76711.16;;;12.31
74043;BMP280;62384;53.600;10.040;2023-04-28T07:56:37;76727.47;;;12.47
74043;BMP280;62384;53.600;10.040;2023-04-28T07:59:02;76706.81;;;12.36
74043;BMP280;62384;53.600;10.040;2023-04-28T08:01:28;76765.63;;;12.76
74043;BMP280;62384;53.600;10.040;2023-04-28T08:03:53;76765.06;;;12.75
74043;BMP280;62384;53.600;10.040;2023-04-28T08:06:18;76760.13;;;12.80
74043;BMP280;62384;53.600;10.040;2023-04-28T08:08:44;76802.81;;;12.99
74043;BMP280;62384;53.600;10.040;2023-04-28T08:11:11;76784.50;;;13.04
74043;BMP280;62384;53.600;10.040;2023-04-28T08:13:37;76856.44;;;13.27
74043;BMP280;62384;53.600;10.040;2023-04-28T08:16:02;76861.00;;;13.57
74043;BMP280;62384;53.600;10.040;2023-04-28T08:18:28;76852.44;;;13.56
74043;BMP280;62384;53.600;10.040;2023-04-28T08:20:53;76904.28;;;13.69
74043;BMP280;62384;53.600;10.040;2023-04-28T08:23:19;76895.09;;;13.68
74043;BMP280;62384;53.600;10.040;2023-04-28T08:25:45;76896.28;;;13.83
74043;BMP280;62384;53.600;10.040;2023-04-28T08:28:11;76911.22;;;13.82
74043;BMP280;62384;53.600;10.040;2023-04-28T08:30:37;76895.19;;;13.82
74043;BMP280;62384;53.600;10.040;2023-04-28T08:33:03;76872.19;;;13.76
74043;BMP280;62384;53.600;10.040;2023-04-28T08:35:29;76913.19;;;13.93
74043;BMP280;62384;53.600;10.040;2023-04-28T08:37:54;76863.84;;;13.52
74043;BMP280;62384;53.600;10.040;2023-04-28T08:40:20;76944.31;;;14.27
74043;BMP280;62384;53.600;10.040;2023-04-28T08:42:47;76899.63;;;13.98
74043;BMP280;62384;53.600;10.040;2023-04-28T08:45:13;76923.09;;;13.90
74043;BMP280;62384;53.600;10.040;2023-04-28T08:47:39;76895.81;;;13.64
74043;BMP280;62384;53.600;10.040;2023-04-28T08:50:09;76910.44;;;13.79
74043;BMP280;62384;53.600;10.040;2023-04-28T08:52:37;76935.03;;;13.98
74043;BMP280;62384;53.600;10.040;2023-04-28T08:55:10;76917.66;;;14.09
74043;BMP280;62384;53.600;10.040;2023-04-28T08:57:48;76982.63;;;14.30
74043;BMP280;62384;53.600;10.040;2023-04-28T09:00:14;76990.72;;;14.44
74043;BMP280;62384;53.600;10.040;2023-04-28T09:02:40;76971.19;;;14.41
74043;BMP280;62384;53.600;10.040;2023-04-28T09:05:11;76955.63;;;14.28
74043;BMP280;62384;53.600;10.040;2023-04-28T09:07:39;76940.63;;;14.15
74043;BMP280;62384;53.600;10.040;2023-04-28T09:10:20;76916.09;;;14.03
74043;BMP280;62384;53.600;10.040;2023-04-28T09:12:47;76946.75;;;14.11
74043;BMP280;62384;53.600;10.040;2023-04-28T09:15:33;76932.16;;;14.03
74043;BMP280;62384;53.600;10.040;2023-04-28T09:17:59;76942.50;;;14.05
74043;BMP280;62384;53.600;10.040;2023-04-28T09:20:26;76981.94;;;14.56
74043;BMP280;62384;53.600;10.040;2023-04-28T09:22:53;76996.69;;;14.52
74043;BMP280;62384;53.600;10.040;2023-04-28T09:25:20;76994.22;;;14.62
74043;BMP280;62384;53.600;10.040;2023-04-28T09:27:49;76976.38;;;14.53
74043;BMP280;62384;53.600;10.040;2023-04-28T09:30:15;76952.56;;;14.30
74043;BMP280;62384;53.600;10.040;2023-04-28T09:32:40;76953.59;;;14.49
74043;BMP280;62384;53.600;10.040;2023-04-28T09:35:06;77007.25;;;14.64
74043;BMP280;62384;53.600;10.040;2023-04-28T09:37:33;77005.53;;;14.62
74043;BMP280;62384;53.600;10.040;2023-04-28T09:40:08;77011.53;;;14.84
74043;BMP280;62384;53.600;10.040;2023-04-28T09:42:35;76990.81;;;14.73
74043;BMP280;62384;53.600;10.040;2023-04-28T09:45:12;76981.38;;;14.55
74043;BMP280;62384;53.600;10.040;2023-04-28T09:47:39;77001.94;;;14.78
74043;BMP280;62384;53.600;10.040;2023-04-28T09:50:07;77059.47;;;15.00
74043;BMP280;62384;53.600;10.040;2023-04-28T09:52:35;77026.34;;;14.94
74043;BMP280;62384;53.600;10.040;2023-04-28T09:55:02;77111.16;;;15.43
74043;BMP280;62384;53.600;10.040;2023-04-28T09:57:35;77148.00;;;15.54
74043;BMP280;62384;53.600;10.040;2023-04-28T10:00:01;77194.94;;;15.97
74043;BMP280;62384;53.600;10.040;2023-04-28T10:02:30;77221.72;;;16.44
74043;BMP280;62384;53.600;10.040;2023-04-28T10:04:56;77268.75;;;16.47
74043;BMP280;62384;53.600;10.040;2023-04-28T10:07:22;77195.34;;;16.16
74043;BMP280;62384;53.600;10.040;2023-04-28T10:09:48;77208.63;;;16.21
74043;BMP280;62384;53.600;10.040;2023-04-28T10:12:18;77189.19;;;16.06
74043;BMP280;62384;53.600;10.040;2023-04-28T10:14:45;77185.34;;;15.98
74043;BMP280;62384;53.600;10.040;2023-04-28T10:17:12;77106.56;;;15.46
74043;BMP280;62384;53.600;10.040;2023-04-28T10:19:40;77111.34;;;15.45
74043;BMP280;62384;53.600;10.040;2023-04-28T10:27:40;77142.50;;;15.79
74043;BMP280;62384;53.600;10.040;2023-04-28T10:30:13;77101.00;;;15.43
74043;BMP280;62384;53.600;10.040;2023-04-28T10:32:39;77066.28;;;15.32
74043;BMP280;62384;53.600;10.040;2023-04-28T10:38:04;77092.81;;;15.55
74043;BMP280;62384;53.600;10.040;2023-04-28T10:40:33;77121.00;;;15.72
74043;BMP280;62384;53.600;10.040;2023-04-28T10:43:00;77175.38;;;16.08
74043;BMP280;62384;53.600;10.040;2023-04-28T10:48:12;77163.84;;;16.05
74043;BMP280;62384;53.600;10.040;2023-04-28T10:51:15;77145.78;;;15.80
74043;BMP280;62384;53.600;10.040;2023-04-28T10:56:12;77165.97;;;16.04
74043;BMP280;62384;53.600;10.040;2023-04-28T10:58:44;77187.69;;;16.21
74043;BMP280;62384;53.600;10.040;2023-04-28T11:03:58;77188.81;;;16.15
74043;BMP280;62384;53.600;10.040;2023-04-28T11:06:27;77211.53;;;16.37
74043;BMP280;62384;53.600;10.040;2023-04-28T11:08:58;77224.22;;;16.48
74043;BMP280;62384;53.600;10.040;2023-04-28T11:11:31;77184.81;;;16.19
74043;BMP280;62384;53.600;10.040;2023-04-28T11:19:25;77219.59;;;16.44
74043;BMP280;62384;53.600;10.040;2023-04-28T11:21:52;77188.13;;;16.40
74043;BMP280;62384;53.600;10.040;2023-04-28T11:24:22;77242.47;;;16.69
74043;BMP280;62384;53.600;10.040;2023-04-28T11:26:49;77208.63;;;16.35
74043;BMP280;62384;53.600;10.040;2023-04-28T11:29:15;77243.00;;;16.41
74043;BMP280;62384;53.600;10.040;2023-04-28T11:31:48;77261.50;;;16.78
74043;BMP280;62384;53.600;10.040;2023-04-28T11:34:18;77270.16;;;16.86
74043;BMP280;62384;53.600;10.040;2023-04-28T11:36:44;77285.72;;;16.92
74043;BMP280;62384;53.600;10.040;2023-04-28T11:39:11;77259.22;;;16.83
74043;BMP280;62384;53.600;10.040;2023-04-28T11:41:43;77274.75;;;16.97
74043;BMP280;62384;53.600;10.040;2023-04-28T11:46:34;77277.84;;;16.95
74043;BMP280;62384;53.600;10.040;2023-04-28T11:49:03;77279.78;;;16.92
74043;BMP280;62384;53.600;10.040;2023-04-28T11:51:32;77228.84;;;16.73
74043;BMP280;62384;53.600;10.040;2023-04-28T11:53:58;77234.56;;;16.57
74043;BMP280;62384;53.600;10.040;2023-04-28T11:56:25;77236.53;;;16.75
74043;BMP280;62384;53.600;10.040;2023-04-28T11:59:10;77166.78;;;16.29
74043;BMP280;62384;53.600;10.040;2023-04-28T12:01:51;77118.34;;;15.79
74043;BMP280;62384;53.600;10.040;2023-04-28T12:04:31;77141.59;;;15.95
74043;BMP280;62384;53.600;10.040;2023-04-28T12:07:08;77128.69;;;15.67
74043;BMP280;62384;53.600;10.040;2023-04-28T12:09:42;77084.97;;;15.78
74043;BMP280;62384;53.600;10.040;2023-04-28T12:12:13;77125.47;;;15.81
74043;BMP280;62384;53.600;10.040;2023-04-28T12:14:56;77141.59;;;15.95
74043;BMP280;62384;53.600;10.040;2023-04-28T12:19:55;77140.44;;;15.94
74043;BMP280;62384;53.600;10.040;2023-04-28T12:22:21;77169.44;;;16.00
74043;BMP280;62384;53.600;10.040;2023-04-28T12:27:27;77151.41;;;16.03
74043;BMP280;62384;53.600;10.040;2023-04-28T12:29:53;77140.03;;;15.82
74043;BMP280;62384;53.600;10.040;2023-04-28T12:32:36;77101.06;;;15.78
74043;BMP280;62384;53.600;10.040;2023-04-28T12:35:01;77096.28;;;15.72
74043;BMP280;62384;53.600;10.040;2023-04-28T12:37:29;77104.91;;;15.72
74043;BMP280;62384;53.600;10.040;2023-04-28T12:39:54;77095.81;;;15.46
74043;BMP280;62384;53.600;10.040;2023-04-28T12:42:20;77097.41;;;15.59
74043;BMP280;62384;53.600;10.040;2023-04-28T12:44:46;77073.44;;;15.54
74043;BMP280;62384;53.600;10.040;2023-04-28T12:47:12;77082.41;;;15.39
74043;BMP280;62384;53.600;10.040;2023-04-28T12:49:38;77083.41;;;15.65
74043;BMP280;62384;53.600;10.040;2023-04-28T12:52:04;77070.72;;;15.47
74043;BMP280;62384;53.600;10.040;2023-04-28T12:54:29;77074.75;;;15.44
74043;BMP280;62384;53.600;10.040;2023-04-28T12:56:55;77053.88;;;15.44
74043;BMP280;62384;53.600;10.040;2023-04-28T12:59:21;77083.19;;;15.49
74043;BMP280;62384;53.600;10.040;2023-04-28T13:01:47;77101.28;;;15.67
74043;BMP280;62384;53.600;10.040;2023-04-28T13:04:12;77083.22;;;15.63
74043;BMP280;62384;53.600;10.040;2023-04-28T13:06:39;77024.13;;;15.42
74043;BMP280;62384;53.600;10.040;2023-04-28T13:09:11;77087.78;;;15.46
74043;BMP280;62384;53.600;10.040;2023-04-28T13:11:38;77094.13;;;15.51
74043;BMP280;62384;53.600;10.040;2023-04-28T13:14:08;77095.09;;;15.50
74043;BMP280;62384;53.600;10.040;2023-04-28T13:16:34;77068.97;;;15.46
74043;BMP280;62384;53.600;10.040;2023-04-28T13:19:00;77079.91;;;15.41
74043;BMP280;62384;53.600;10.040;2023-04-28T13:21:26;77066.50;;;15.41
74043;BMP280;62384;53.600;10.040;2023-04-28T13:23:53;77060.94;;;15.39
74043;BMP280;62384;53.600;10.040;2023-04-28T13:26:19;77014.72;;;15.24
74043;BMP280;62384;53.600;10.040;2023-04-28T13:28:46;77061.06;;;15.20
74043;BMP280;62384;53.600;10.040;2023-04-28T13:31:11;77078.38;;;15.42
74043;BMP280;62384;53.600;10.040;2023-04-28T13:33:37;77060.94;;;15.32
74043;BMP280;62384;53.600;10.040;2023-04-28T13:36:03;77049.75;;;15.19
74043;BMP280;62384;53.600;10.040;2023-04-28T13:38:29;77019.28;;;15.14
74043;BMP280;62384;53.600;10.040;2023-04-28T13:40:54;77047.28;;;15.22
74043;BMP280;62384;53.600;10.040;2023-04-28T13:43:19;77050.53;;;15.22
74043;BMP280;62384;53.600;10.040;2023-04-28T13:45:44;77018.91;;;15.16
74043;BMP280;62384;53.600;10.040;2023-04-28T13:48:10;77086.19;;;15.25
74043;BMP280;62384;53.600;10.040;2023-04-28T13:50:36;77042.13;;;15.24
74043;BMP280;62384;53.600;10.040;2023-04-28T13:53:02;77088.00;;;15.48
74043;BMP280;62384;53.600;10.040;2023-04-28T13:55:27;77077.84;;;15.56
74043;BMP280;62384;53.600;10.040;2023-04-28T13:57:53;77057.28;;;15.40
74043;BMP280;62384;53.600;10.040;2023-04-28T14:00:19;77119.44;;;15.52
74043;BMP280;62384;53.600;10.040;2023-04-28T14:02:44;77079.13;;;15.45
74043;BMP280;62384;53.600;10.040;2023-04-28T14:05:10;77080.63;;;15.23
74043;BMP280;62384;53.600;10.040;2023-04-28T14:07:36;77065.53;;;15.43
74043;BMP280;62384;53.600;10.040;2023-04-28T14:10:03;77086.25;;;15.47
74043;BMP280;62384;53.600;10.040;2023-04-28T14:12:28;77043.09;;;15.37
74043;BMP280;62384;53.600;10.040;2023-04-28T14:14:53;77092.41;;;15.57
74043;BMP280;62384;53.600;10.040;2023-04-28T14:17:19;77099.53;;;15.65
74043;BMP280;62384;53.600;10.040;2023-04-28T14:19:44;77090.34;;;15.64
74043;BMP280;62384;53.600;10.040;2023-04-28T14:22:10;77109.88;;;15.67
74043;BMP280;62384;53.600;10.040;2023-04-28T14:24:35;77093.00;;;15.57
74043;BMP280;62384;53.600;10.040;2023-04-28T14:27:01;77082.25;;;15.50
74043;BMP280;62384;53.600;10.040;2023-04-28T14:29:26;77087.44;;;15.55
74043;BMP280;62384;53.600;10.040;2023-04-28T14:31:51;77076.13;;;15.61